createdAt,value
2018-11-20T01:33:28.634Z,12.07
2018-11-20T01:42:24.385Z,13.90
2018-11-20T01:52:11.307Z,16.10
2018-11-20T01:54:47.744Z,21.15
2018-11-20T01:57:35.463Z,14.18
2018-11-20T02:00:21.109Z,15.38
2018-11-20T02:03:08.621Z,16.07
2018-11-20T02:05:59.417Z,18.45
2018-11-20T02:08:50.267Z,11.88
2018-11-20T02:11:44.598Z,13.90
2018-11-20T02:14:33.588Z,14.75
2018-11-20T02:17:23.075Z,14.50
2018-11-20T02:20:09.818Z,13.55
2018-11-20T02:22:56.672Z,13.25
2018-11-20T02:25:50.589Z,13.50
2018-11-20T02:28:38.658Z,21.12
2018-11-20T02:31:14.560Z,22.30
2018-11-20T02:34:08.286Z,14.00
2018-11-20T02:36:54.739Z,13.05
2018-11-20T02:39:41.597Z,13.45
2018-11-20T02:42:35.418Z,15.53
2018-11-20T02:45:22.155Z,13.40
2018-11-20T02:48:08.961Z,17.07
2018-11-20T02:50:55.574Z,11.43
2018-11-20T02:53:58.395Z,10.82
2018-11-20T02:57:01.472Z,11.95
2018-11-20T02:59:58.691Z,13.68
2018-11-20T03:02:40.746Z,17.37
2018-11-20T03:05:27.500Z,15.45
2018-11-20T03:08:12.159Z,12.80
2018-11-20T03:10:48.494Z,12.50
2018-11-20T03:13:34.971Z,12.75
2018-11-20T03:16:38.140Z,15.95
2018-11-20T03:19:35.461Z,20.23
2018-11-20T03:22:15.225Z,14.30
2018-11-20T03:24:54.476Z,20.12
2018-11-20T03:27:36.987Z,13.70
2018-11-20T03:30:54.440Z,16.32
2018-11-20T03:33:31.880Z,13.35
2018-11-20T03:36:18.782Z,16.35
2018-11-20T03:39:15.683Z,14.58
2018-11-20T03:42:01.411Z,16.45
2018-11-20T03:44:49.554Z,17.75
2018-11-20T03:47:54.197Z,16.10
2018-11-20T03:50:42.241Z,15.35
2018-11-20T03:53:29.182Z,14.60
2018-11-20T03:56:15.752Z,18.17
2018-11-20T03:59:02.290Z,15.68
2018-11-20T04:01:59.506Z,15.68
2018-11-20T04:04:44.472Z,15.75
2018-11-20T04:07:32.617Z,12.33
2018-11-20T04:10:19.198Z,15.20
2018-11-20T04:13:10.305Z,18.23
2018-11-20T04:15:59.986Z,16.57
2018-11-20T04:18:46.553Z,15.45
2018-11-20T04:21:34.705Z,16.17
2018-11-20T04:24:23.288Z,18.80
2018-11-20T04:27:08.630Z,15.63
2018-11-20T04:29:46.964Z,22.60
2018-11-20T04:32:27.730Z,13.90
2018-11-20T04:35:17.550Z,14.70
2018-11-20T04:38:20.886Z,15.75
2018-11-20T04:41:20.802Z,15.75
2018-11-20T04:44:08.274Z,15.53
2018-11-20T04:46:53.650Z,16.45
2018-11-20T04:49:29.320Z,16.65
2018-11-20T04:52:17.634Z,15.28
2018-11-20T04:55:04.257Z,19.98
2018-11-20T04:57:57.537Z,15.45
2018-11-20T05:01:00.538Z,17.65
2018-11-20T05:03:37.209Z,11.80
2018-11-20T05:06:12.810Z,13.72
2018-11-20T05:08:52.422Z,12.58
2018-11-20T05:11:30.158Z,18.42
2018-11-20T05:14:13.145Z,12.88
2018-11-20T05:16:59.544Z,14.33
2018-11-20T05:19:50.320Z,20.65
2018-11-20T05:22:36.516Z,17.23
2018-11-20T05:25:33.758Z,17.10
2018-11-20T05:28:20.638Z,17.57
2018-11-20T05:31:07.704Z,14.28
2018-11-20T05:34:01.673Z,15.55
2018-11-20T05:36:41.698Z,14.43
2018-11-20T05:39:35.336Z,17.42
2018-11-20T05:42:20.816Z,19.67
2018-11-20T05:45:13.302Z,16.05
2018-11-20T05:47:55.220Z,14.15
2018-11-20T05:50:44.214Z,18.77
2018-11-20T05:53:30.701Z,18.80
2018-11-20T05:56:07.940Z,15.00
2018-11-20T05:58:54.700Z,13.80
2018-11-20T06:01:37.283Z,17.37
2018-11-20T06:04:14.038Z,19.65
2018-11-20T06:07:11.170Z,14.40
2018-11-20T06:09:57.716Z,19.82
2018-11-20T06:12:44.212Z,23.42
2018-11-20T06:15:41.360Z,16.45
2018-11-20T06:18:29.518Z,26.10
2018-11-20T06:21:20.442Z,23.75
2018-11-20T06:24:09.936Z,19.90
2018-11-20T06:27:08.958Z,15.70
2018-11-20T06:29:54.396Z,14.33
2018-11-20T06:32:43.934Z,16.65
2018-11-20T06:35:25.342Z,13.28
2018-11-20T06:38:12.084Z,20.20
2018-11-20T06:41:03.380Z,17.12
2018-11-20T06:44:03.360Z,14.15
2018-11-20T06:46:43.000Z,15.15
2018-11-20T06:49:29.784Z,18.20
2018-11-20T06:52:22.926Z,20.52
2018-11-20T06:55:16.339Z,16.35
2018-11-20T06:58:03.144Z,16.82
2018-11-20T07:00:57.303Z,15.65
2018-11-20T07:04:03.395Z,14.05
2018-11-20T07:06:50.106Z,19.55
2018-11-20T07:09:48.402Z,15.78
2018-11-20T07:12:30.619Z,21.75
2018-11-20T07:15:19.947Z,17.98
2018-11-20T07:18:00.924Z,18.00
2018-11-20T07:20:50.790Z,19.70
2018-11-20T07:23:42.218Z,15.68
2018-11-20T07:26:40.468Z,17.40
2018-11-20T07:29:34.393Z,19.12
2018-11-20T07:33:08.960Z,18.80
2018-11-20T07:36:08.538Z,18.87
2018-11-20T07:39:08.393Z,16.05
2018-11-20T07:42:08.024Z,21.15
2018-11-20T07:45:10.824Z,23.52
2018-11-20T07:48:10.288Z,22.25
2018-11-20T07:51:13.116Z,22.85
2018-11-20T07:54:13.238Z,18.92
2018-11-20T07:57:13.365Z,20.25
2018-11-20T08:00:16.498Z,17.52
2018-11-20T08:03:16.314Z,26.27
2018-11-20T08:06:16.293Z,21.42
2018-11-20T08:09:16.275Z,18.73
2018-11-20T08:12:15.739Z,17.12
2018-11-20T08:15:15.527Z,15.58
2018-11-20T08:18:15.629Z,17.77
2018-11-20T08:21:15.766Z,17.50
2018-11-20T08:24:16.047Z,25.12
2018-11-20T08:27:13.588Z,18.70
2018-11-20T08:30:11.485Z,18.37
2018-11-20T08:33:11.605Z,16.30
2018-11-20T08:36:09.473Z,16.75
2018-11-20T08:39:16.291Z,19.80
2018-11-20T08:42:16.103Z,19.42
2018-11-20T08:45:15.608Z,17.17
2018-11-20T08:48:22.434Z,19.90
2018-11-20T08:51:18.427Z,17.45
2018-11-20T08:54:08.806Z,20.77
2018-11-20T08:57:08.227Z,16.32
2018-11-20T08:59:58.885Z,19.35
2018-11-20T09:03:01.751Z,20.37
2018-11-20T09:06:01.910Z,20.10
2018-11-20T09:09:01.517Z,21.48
2018-11-20T09:11:53.178Z,22.80
2018-11-20T09:14:52.532Z,15.45
2018-11-20T09:17:55.478Z,32.33
2018-11-20T09:20:53.673Z,16.42
2018-11-20T09:24:00.451Z,17.40
2018-11-20T09:26:59.866Z,19.98
2018-11-20T09:30:02.302Z,18.65
2018-11-20T09:32:54.228Z,17.87
2018-11-20T09:35:59.842Z,23.45
2018-11-20T09:38:59.639Z,20.10
2018-11-20T09:41:59.765Z,21.65
2018-11-20T09:44:59.953Z,19.45
2018-11-20T09:47:59.648Z,20.43
2018-11-20T09:50:59.777Z,17.62
2018-11-20T09:53:59.823Z,18.80
2018-11-20T09:56:59.877Z,19.27
2018-11-20T10:00:05.314Z,18.25
2018-11-20T10:02:58.690Z,20.02
2018-11-20T10:05:58.709Z,19.75
2018-11-20T10:08:58.906Z,24.23
2018-11-20T10:11:59.239Z,23.25
2018-11-20T10:14:48.267Z,21.45
2018-11-20T10:17:47.603Z,21.02
2018-11-20T10:20:43.153Z,21.15
2018-11-20T10:23:42.999Z,20.97
2018-11-20T10:26:43.193Z,24.47
2018-11-20T10:29:43.380Z,18.32
2018-11-20T10:32:43.637Z,18.30
2018-11-20T10:35:37.826Z,17.30
2018-11-20T10:38:37.543Z,24.95
2018-11-20T10:41:37.365Z,21.15
2018-11-20T10:44:37.143Z,29.12
2018-11-20T10:47:37.283Z,25.65
2018-11-20T10:50:36.791Z,26.60
2018-11-20T10:53:36.763Z,27.65
2018-11-20T10:59:46.691Z,23.57
2018-11-20T11:02:46.713Z,25.48
2018-11-20T11:05:46.910Z,26.75
2018-11-20T11:08:47.134Z,23.75
2018-11-20T11:11:35.716Z,27.60
2018-11-20T11:14:37.050Z,25.60
2018-11-20T11:17:36.830Z,23.10
2018-11-20T11:20:37.056Z,23.83
2018-11-20T11:23:37.108Z,23.83
2018-11-20T11:26:37.290Z,25.77
2018-11-20T11:29:37.268Z,27.90
2018-11-20T11:32:36.726Z,24.57
2018-11-20T11:35:36.292Z,28.00
2018-11-20T11:38:43.102Z,29.00
2018-11-20T11:41:36.598Z,29.02
2018-11-20T11:44:36.254Z,28.98
2018-11-20T11:47:27.002Z,27.07
2018-11-20T11:50:26.408Z,26.05
2018-11-20T11:53:26.265Z,24.12
2018-11-20T11:56:25.714Z,31.33
2018-11-20T11:59:25.953Z,29.52
2018-11-20T12:05:15.294Z,27.77
2018-11-20T12:08:15.596Z,35.60
2018-11-20T12:11:15.445Z,26.17
2018-11-20T12:14:14.840Z,28.05
2018-11-20T12:17:14.835Z,28.50
2018-11-20T12:20:15.128Z,27.00
2018-11-20T12:23:08.926Z,30.45
2018-11-20T12:26:02.813Z,31.65
2018-11-20T12:28:55.876Z,31.48
2018-11-20T12:31:41.337Z,37.00
2018-11-20T12:34:31.609Z,31.37
2018-11-20T12:37:07.651Z,28.62
2018-11-20T12:39:47.102Z,33.92
2018-11-20T12:42:38.681Z,26.23
2018-11-20T12:45:23.952Z,29.63
2018-11-20T12:48:14.126Z,31.80
2018-11-20T12:50:55.725Z,28.73
2018-11-20T12:53:48.701Z,25.60
2018-11-20T12:56:25.956Z,29.02
2018-11-20T12:59:11.749Z,31.05
2018-11-20T13:01:57.346Z,30.65
2018-11-20T13:04:45.699Z,27.37
2018-11-20T13:07:24.082Z,28.75
2018-11-20T13:10:10.032Z,28.05
2018-11-20T13:13:00.615Z,27.10
2018-11-20T13:15:53.429Z,35.50
2018-11-20T13:18:30.507Z,32.23
2018-11-20T13:21:06.251Z,26.35
2018-11-20T13:23:51.832Z,26.00
2018-11-20T13:26:42.855Z,31.27
2018-11-20T13:29:36.033Z,29.52
2018-11-20T13:32:15.632Z,27.45
2018-11-20T13:35:01.317Z,28.57
2018-11-20T13:37:51.944Z,29.82
2018-11-20T13:41:19.415Z,27.77
2018-11-20T13:44:05.314Z,29.23
2018-11-20T13:46:55.523Z,27.52
2018-11-20T13:49:48.822Z,28.55
2018-11-20T13:52:29.577Z,33.53
2018-11-20T13:55:27.332Z,27.87
2018-11-20T13:58:12.663Z,29.85
2018-11-20T14:01:05.704Z,32.70
2018-11-20T14:03:58.962Z,31.45
2018-11-20T14:06:37.222Z,26.80
2018-11-20T14:09:42.155Z,24.72
2018-11-20T14:12:21.659Z,27.40
2018-11-20T14:14:59.670Z,29.05
2018-11-20T14:17:45.557Z,33.40
2018-11-20T14:20:32.174Z,27.70
2018-11-20T14:23:14.132Z,23.90
2018-11-20T14:26:10.389Z,36.80
2018-11-20T14:28:56.152Z,35.03
2018-11-20T14:31:36.110Z,36.88
2018-11-20T14:34:22.463Z,29.37
2018-11-20T14:37:07.548Z,29.00
2018-11-20T14:39:58.313Z,29.57
2018-11-20T14:42:51.509Z,32.33
2018-11-20T14:45:28.591Z,20.10
2018-11-20T14:48:17.855Z,41.65
2018-11-20T14:51:03.552Z,31.35
2018-11-20T14:53:39.050Z,28.62
2018-11-20T14:56:14.677Z,24.65
2018-11-20T14:59:00.916Z,22.80
2018-11-20T15:01:46.794Z,26.48
2018-11-20T15:04:27.067Z,23.35
2018-11-20T15:07:14.144Z,26.23
2018-11-20T15:09:58.506Z,26.82
2018-11-20T15:12:33.894Z,24.30
2018-11-20T15:15:27.176Z,25.27
2018-11-20T15:18:04.254Z,24.63
2018-11-20T15:20:43.699Z,25.70
2018-11-20T15:23:42.691Z,24.10
2018-11-20T15:26:28.557Z,24.95
2018-11-20T15:29:33.937Z,23.90
2018-11-20T15:32:10.078Z,22.70
2018-11-20T15:35:03.283Z,19.45
2018-11-20T15:37:51.121Z,18.20
2018-11-20T15:40:36.659Z,20.65
2018-11-20T15:43:41.723Z,17.57
2018-11-20T15:46:27.300Z,25.77
2018-11-20T15:49:12.821Z,17.62
2018-11-20T15:51:58.597Z,16.90
2018-11-20T15:54:40.056Z,13.85
2018-11-20T15:57:45.462Z,22.48
2018-11-20T16:00:28.325Z,18.25
2018-11-20T16:03:23.106Z,18.35
2018-11-20T16:06:15.093Z,14.70
2018-11-20T16:09:00.787Z,16.93
2018-11-20T16:11:41.228Z,18.07
2018-11-20T16:14:21.048Z,16.60
2018-11-20T16:17:17.142Z,15.23
2018-11-20T16:19:43.823Z,15.90
2018-11-20T16:22:29.410Z,15.05
2018-11-20T16:25:19.419Z,16.27
2018-11-20T16:28:06.839Z,15.28
2018-11-20T16:30:52.747Z,15.90
2018-11-20T16:33:43.313Z,17.98
2018-11-20T16:36:29.353Z,14.30
2018-11-20T16:39:34.829Z,13.10
2018-11-20T16:42:27.783Z,21.37
2018-11-20T16:45:07.419Z,17.48
2018-11-20T16:47:44.181Z,17.37
2018-11-20T16:50:31.537Z,13.72
2018-11-20T16:53:27.784Z,18.23
2018-11-20T16:56:15.103Z,16.80
2018-11-20T16:59:11.187Z,19.40
2018-11-20T17:01:51.517Z,16.90
2018-11-20T17:04:37.358Z,14.40
2018-11-20T17:07:33.903Z,16.12
2018-11-20T17:10:17.651Z,17.32
2018-11-20T17:13:00.857Z,19.73
2018-11-20T17:15:53.722Z,21.77
2018-11-20T17:18:39.483Z,19.62
2018-11-20T17:21:24.195Z,16.73
2018-11-20T17:24:09.857Z,19.25
2018-11-20T17:26:55.530Z,19.02
2018-11-20T17:29:34.763Z,17.50
2018-11-20T17:32:20.299Z,15.38
2018-11-20T17:35:05.998Z,14.25
2018-11-20T17:37:43.880Z,17.65
2018-11-20T17:40:33.330Z,18.87
2018-11-20T17:43:18.598Z,17.60
2018-11-20T17:45:59.155Z,15.88
2018-11-20T17:48:58.309Z,21.87
2018-11-20T17:51:49.651Z,16.90
2018-11-20T17:54:39.907Z,15.15
2018-11-20T17:57:26.492Z,21.15
2018-11-20T18:00:22.308Z,18.80
2018-11-20T18:03:18.563Z,19.60
2018-11-20T18:06:15.601Z,17.80
2018-11-20T18:09:02.061Z,19.10
2018-11-20T18:11:48.985Z,19.73
2018-11-20T18:14:34.675Z,18.10
2018-11-20T18:17:20.753Z,16.55
2018-11-20T18:19:57.782Z,15.85
2018-11-20T18:22:39.841Z,17.50
2018-11-20T18:25:21.536Z,16.57
2018-11-20T18:27:59.182Z,24.92
2018-11-20T18:30:35.547Z,27.58
2018-11-20T18:33:29.957Z,21.02
2018-11-20T18:36:22.879Z,17.98
2018-11-20T18:39:16.946Z,16.35
2018-11-20T18:42:04.317Z,18.67
2018-11-20T18:44:47.529Z,20.00
2018-11-20T18:47:44.050Z,19.75
2018-11-20T18:50:23.291Z,22.62
2018-11-20T18:53:09.099Z,16.85
2018-11-20T18:55:54.097Z,28.05
2018-11-20T18:58:41.453Z,20.60
2018-11-20T19:01:30.067Z,25.15
2018-11-20T19:04:32.257Z,21.50
2018-11-20T19:07:14.551Z,21.00
2018-11-20T19:10:05.275Z,20.95
2018-11-20T19:13:07.661Z,19.02
2018-11-20T19:15:53.223Z,19.57
2018-11-20T19:18:28.853Z,21.77
2018-11-20T19:21:08.155Z,20.05
2018-11-20T19:24:13.346Z,18.77
2018-11-20T19:26:59.142Z,20.05
2018-11-20T19:29:34.877Z,24.43
2018-11-20T19:32:13.397Z,21.57
2018-11-20T19:34:56.052Z,19.55
2018-11-20T19:37:49.378Z,21.65
2018-11-20T19:40:39.864Z,18.17
2018-11-20T19:43:25.511Z,19.02
2018-11-20T19:46:14.130Z,19.90
2018-11-20T19:49:16.194Z,24.45
2018-11-20T19:52:05.108Z,24.80
2018-11-20T19:54:55.093Z,24.23
2018-11-20T19:57:41.135Z,21.97
2018-11-20T20:00:30.363Z,24.05
2018-11-20T20:03:15.930Z,27.02
2018-11-20T20:05:57.667Z,26.23
2018-11-20T20:08:44.977Z,29.10
2018-11-20T20:11:32.356Z,22.95
2018-11-20T20:14:09.708Z,28.38
2018-11-20T20:17:05.865Z,26.07
2018-11-20T20:19:47.942Z,21.73
2018-11-20T20:22:47.284Z,20.52
2018-11-20T20:25:34.650Z,20.20
2018-11-20T20:28:20.609Z,26.90
2018-11-20T20:31:06.297Z,22.98
2018-11-20T20:33:54.159Z,25.10
2018-11-20T20:36:44.309Z,21.68
2018-11-20T20:39:29.980Z,24.95
2018-11-20T20:42:19.982Z,22.48
2018-11-20T20:45:05.668Z,23.70
2018-11-20T20:47:43.200Z,25.32
2018-11-20T20:50:22.506Z,18.80
2018-11-20T20:53:09.606Z,27.75
2018-11-20T20:55:55.415Z,22.48
2018-11-20T20:58:32.519Z,32.15
2018-11-20T21:01:25.253Z,24.75
2018-11-20T21:04:03.055Z,26.52
2018-11-20T21:06:53.023Z,25.90
2018-11-20T21:09:35.531Z,27.48
2018-11-20T21:12:21.093Z,23.32
2018-11-20T21:15:06.731Z,21.42
2018-11-20T21:17:45.362Z,40.55
2018-11-20T21:20:30.957Z,26.33
2018-11-20T21:23:18.530Z,24.85
2018-11-20T21:26:08.537Z,25.20
2018-11-20T21:28:54.283Z,28.15
2018-11-20T21:31:40.050Z,26.07
2018-11-20T21:34:27.841Z,30.25
2018-11-20T21:37:15.300Z,31.35
2018-11-20T21:40:05.627Z,29.48
2018-11-20T21:43:04.297Z,37.33
2018-11-20T21:45:46.243Z,32.88
2018-11-20T21:48:21.278Z,33.60
2018-11-20T21:51:25.962Z,30.43
2018-11-20T21:54:28.283Z,30.32
2018-11-20T21:57:13.122Z,26.68
2018-11-20T22:00:10.192Z,35.95
2018-11-20T22:03:04.734Z,32.53
2018-11-20T22:05:54.980Z,37.10
2018-11-20T22:08:40.772Z,29.85
2018-11-20T22:11:26.822Z,28.32
2018-11-20T22:14:11.009Z,32.98
2018-11-20T22:17:04.212Z,30.52
2018-11-20T22:19:49.793Z,30.82
2018-11-20T22:22:35.382Z,32.65
2018-11-20T22:25:21.020Z,37.10
2018-11-20T22:28:14.362Z,34.33
2018-11-20T22:31:00.302Z,43.38
2018-11-20T22:33:47.689Z,33.55
2018-11-20T22:36:37.965Z,29.70
2018-11-20T22:39:27.683Z,35.13
2018-11-20T22:42:12.583Z,34.70
2018-11-20T22:44:55.173Z,34.60
2018-11-20T22:47:51.369Z,31.42
2018-11-20T22:50:28.734Z,32.50
2018-11-20T22:53:24.891Z,33.35
2018-11-20T22:56:10.266Z,32.00
2018-11-20T22:58:55.022Z,38.55
2018-11-20T23:01:40.603Z,35.52
2018-11-20T23:04:35.968Z,33.50
2018-11-20T23:07:23.400Z,28.65
2018-11-20T23:09:51.528Z,32.53
2018-11-20T23:12:19.937Z,39.83
2018-11-20T23:14:48.112Z,35.70
2018-11-20T23:17:16.224Z,31.42
2018-11-20T23:19:44.548Z,36.73
2018-11-20T23:22:12.639Z,32.15
2018-11-20T23:24:40.754Z,34.40
2018-11-20T23:27:09.786Z,39.10
2018-11-20T23:29:36.954Z,30.10
2018-11-20T23:32:05.246Z,30.72
2018-11-20T23:34:33.376Z,34.53
2018-11-20T23:37:01.524Z,32.25
2018-11-20T23:39:29.686Z,33.42
2018-11-20T23:41:57.788Z,34.50
2018-11-20T23:44:25.934Z,31.45
2018-11-20T23:46:54.026Z,32.50
2018-11-20T23:49:22.126Z,38.98
2018-11-20T23:51:50.398Z,34.60
2018-11-20T23:54:18.547Z,32.78
2018-11-20T23:56:46.654Z,37.85
2018-11-20T23:59:14.802Z,33.83
